sensor_id;sensor_type;location;lat;lon;timestamp;pressure;altitude;pressure_sealevel;temperature;humidity
5500;BME280;2772;42.700;23.304;2023-03-16T00:01:40;94277.09;;;5.10;100.00
5500;BME280;2772;42.700;23.304;2023-03-16T00:04:07;94269.97;;;5.24;100.00
5500;BME280;2772;42.700;23.304;2023-03-16T00:06:34;94268.47;;;5.45;100.00
5500;BME280;2772;42.700;23.304;2023-03-16T00:09:02;94278.47;;;5.21;100.00
5500;BME280;2772;42.700;23.304;2023-03-16T00:11:30;94276.72;;;5.17;100.00
5500;BME280;2772;42.700;23.304;2023-03-16T00:13:57;94286.84;;;5.10;100.00
5500;BME280;2772;42.700;23.304;2023-03-16T00:16:24;94291.75;;;5.03;100.00
5500;BME280;2772;42.700;23.304;2023-03-16T00:18:50;94286.78;;;5.15;100.00
5500;BME280;2772;42.700;23.304;2023-03-16T00:21:17;94291.03;;;5.11;100.00
5500;BME280;2772;42.700;23.304;2023-03-16T00:23:44;94285.09;;;5.05;100.00
5500;BME280;2772;42.700;23.304;2023-03-16T00:26:11;94290.38;;;5.05;100.00
5500;BME280;2772;42.700;23.304;2023-03-16T00:28:39;94298.28;;;5.19;100.00
5500;BME280;2772;42.700;23.304;2023-03-16T00:31:08;94285.81;;;5.24;100.00
5500;BME280;2772;42.700;23.304;2023-03-16T00:33:36;94287.16;;;5.35;100.00
5500;BME280;2772;42.700;23.304;2023-03-16T00:36:05;94292.72;;;5.47;100.00
5500;BME280;2772;42.700;23.304;2023-03-16T00:38:35;94286.66;;;5.47;100.00
5500;BME280;2772;42.700;23.304;2023-03-16T00:41:03;94303.56;;;5.19;100.00
5500;BME280;2772;42.700;23.304;2023-03-16T00:43:30;94306.13;;;5.24;100.00
5500;BME280;2772;42.700;23.304;2023-03-16T00:46:06;94301.31;;;5.12;100.00
5500;BME280;2772;42.700;23.304;2023-03-16T00:48:34;94304.22;;;4.83;100.00
5500;BME280;2772;42.700;23.304;2023-03-16T00:51:01;94305.84;;;4.79;100.00
5500;BME280;2772;42.700;23.304;2023-03-16T00:53:28;94308.38;;;4.71;100.00
5500;BME280;2772;42.700;23.304;2023-03-16T00:55:55;94306.91;;;4.65;100.00
5500;BME280;2772;42.700;23.304;2023-03-16T00:58:22;94300.91;;;4.59;100.00
5500;BME280;2772;42.700;23.304;2023-03-16T01:00:49;94306.44;;;4.44;100.00
5500;BME280;2772;42.700;23.304;2023-03-16T01:03:19;94304.44;;;4.36;100.00
5500;BME280;2772;42.700;23.304;2023-03-16T01:05:46;94303.47;;;4.14;100.00
5500;BME280;2772;42.700;23.304;2023-03-16T01:08:13;94314.16;;;4.22;100.00
5500;BME280;2772;42.700;23.304;2023-03-16T01:10:40;94305.53;;;4.17;100.00
5500;BME280;2772;42.700;23.304;2023-03-16T01:13:06;94311.38;;;4.32;100.00
5500;BME280;2772;42.700;23.304;2023-03-16T01:15:33;94304.97;;;4.20;100.00
5500;BME280;2772;42.700;23.304;2023-03-16T01:18:00;94310.94;;;4.25;100.00
5500;BME280;2772;42.700;23.304;2023-03-16T01:20:28;94303.97;;;4.16;100.00
5500;BME280;2772;42.700;23.304;2023-03-16T01:22:55;94310.25;;;4.20;100.00
5500;BME280;2772;42.700;23.304;2023-03-16T01:25:22;94311.00;;;4.20;100.00
5500;BME280;2772;42.700;23.304;2023-03-16T01:27:48;94317.34;;;4.19;100.00
5500;BME280;2772;42.700;23.304;2023-03-16T01:30:15;94309.22;;;4.16;100.00
5500;BME280;2772;42.700;23.304;2023-03-16T01:32:42;94309.75;;;4.18;100.00
5500;BME280;2772;42.700;23.304;2023-03-16T01:35:09;94319.47;;;4.17;100.00
5500;BME280;2772;42.700;23.304;2023-03-16T01:37:37;94318.84;;;3.88;100.00
5500;BME280;2772;42.700;23.304;2023-03-16T01:40:05;94323.09;;;3.84;100.00
5500;BME280;2772;42.700;23.304;2023-03-16T01:42:43;94320.47;;;3.84;100.00
5500;BME280;2772;42.700;23.304;2023-03-16T01:48:09;94333.63;;;3.84;100.00
5500;BME280;2772;42.700;23.304;2023-03-16T01:50:36;94342.81;;;3.87;100.00
5500;BME280;2772;42.700;23.304;2023-03-16T01:53:04;94338.97;;;3.79;100.00
5500;BME280;2772;42.700;23.304;2023-03-16T01:55:31;94330.66;;;3.91;100.00
5500;BME280;2772;42.700;23.304;2023-03-16T01:57:58;94336.25;;;3.84;100.00
5500;BME280;2772;42.700;23.304;2023-03-16T02:00:24;94348.31;;;3.90;100.00
5500;BME280;2772;42.700;23.304;2023-03-16T02:02:58;94340.34;;;3.95;100.00
5500;BME280;2772;42.700;23.304;2023-03-16T02:05:31;94355.19;;;3.86;100.00
5500;BME280;2772;42.700;23.304;2023-03-16T02:08:00;94355.25;;;3.81;100.00
5500;BME280;2772;42.700;23.304;2023-03-16T02:10:29;94353.66;;;3.85;100.00
5500;BME280;2772;42.700;23.304;2023-03-16T02:12:56;94363.00;;;3.96;100.00
5500;BME280;2772;42.700;23.304;2023-03-16T02:15:23;94368.06;;;3.69;100.00
5500;BME280;2772;42.700;23.304;2023-03-16T02:17:51;94368.72;;;3.80;100.00
5500;BME280;2772;42.700;23.304;2023-03-16T02:20:28;94366.41;;;3.73;100.00
5500;BME280;2772;42.700;23.304;2023-03-16T02:22:58;94366.34;;;3.78;100.00
5500;BME280;2772;42.700;23.304;2023-03-16T02:25:30;94365.66;;;3.73;100.00
5500;BME280;2772;42.700;23.304;2023-03-16T02:28:07;94366.59;;;3.58;100.00
5500;BME280;2772;42.700;23.304;2023-03-16T02:30:38;94378.88;;;3.44;100.00
5500;BME280;2772;42.700;23.304;2023-03-16T02:33:05;94367.25;;;3.45;100.00
5500;BME280;2772;42.700;23.304;2023-03-16T02:35:32;94377.47;;;3.52;100.00
5500;BME280;2772;42.700;23.304;2023-03-16T02:37:59;94382.41;;;3.58;100.00
5500;BME280;2772;42.700;23.304;2023-03-16T02:40:29;94382.25;;;3.50;100.00
5500;BME280;2772;42.700;23.304;2023-03-16T02:43:00;94378.59;;;3.46;100.00
5500;BME280;2772;42.700;23.304;2023-03-16T02:45:32;94375.09;;;3.50;100.00
5500;BME280;2772;42.700;23.304;2023-03-16T02:48:06;94376.78;;;3.41;100.00
5500;BME280;2772;42.700;23.304;2023-03-16T02:50:43;94368.88;;;3.17;100.00
5500;BME280;2772;42.700;23.304;2023-03-16T02:53:11;94378.88;;;3.15;100.00
5500;BME280;2772;42.700;23.304;2023-03-16T03:53:06;94423.56;;;2.92;100.00
5500;BME280;2772;42.700;23.304;2023-03-16T03:55:32;94430.16;;;2.84;100.00
5500;BME280;2772;42.700;23.304;2023-03-16T03:57:59;94445.63;;;2.91;100.00
5500;BME280;2772;42.700;23.304;2023-03-16T04:00:26;94449.75;;;2.68;100.00
5500;BME280;2772;42.700;23.304;2023-03-16T04:02:52;94454.00;;;2.59;100.00
5500;BME280;2772;42.700;23.304;2023-03-16T04:05:19;94445.06;;;2.60;100.00
5500;BME280;2772;42.700;23.304;2023-03-16T04:07:46;94456.41;;;2.56;100.00
5500;BME280;2772;42.700;23.304;2023-03-16T04:10:16;94445.66;;;2.52;100.00
5500;BME280;2772;42.700;23.304;2023-03-16T04:12:43;94452.44;;;2.58;100.00
5500;BME280;2772;42.700;23.304;2023-03-16T04:15:10;94450.31;;;2.65;100.00
5500;BME280;2772;42.700;23.304;2023-03-16T04:17:37;94451.84;;;2.71;100.00
5500;BME280;2772;42.700;23.304;2023-03-16T04:20:05;94452.66;;;2.67;100.00
5500;BME280;2772;42.700;23.304;2023-03-16T04:22:37;94449.75;;;2.68;100.00
5500;BME280;2772;42.700;23.304;2023-03-16T04:25:04;94452.59;;;2.72;100.00
5500;BME280;2772;42.700;23.304;2023-03-16T04:27:32;94455.84;;;2.64;100.00
5500;BME280;2772;42.700;23.304;2023-03-16T04:30:01;94466.88;;;2.61;100.00
5500;BME280;2772;42.700;23.304;2023-03-16T04:32:28;94470.84;;;2.53;100.00
5500;BME280;2772;42.700;23.304;2023-03-16T04:34:54;94472.63;;;2.63;100.00
5500;BME280;2772;42.700;23.304;2023-03-16T04:37:21;94470.00;;;2.63;100.00
5500;BME280;2772;42.700;23.304;2023-03-16T04:39:48;94467.19;;;2.54;100.00
5500;BME280;2772;42.700;23.304;2023-03-16T04:42:15;94474.47;;;2.62;100.00
5500;BME280;2772;42.700;23.304;2023-03-16T04:44:43;94486.81;;;2.67;100.00
5500;BME280;2772;42.700;23.304;2023-03-16T04:47:09;94480.31;;;2.54;100.00
5500;BME280;2772;42.700;23.304;2023-03-16T04:49:36;94487.13;;;2.60;100.00
5500;BME280;2772;42.700;23.304;2023-03-16T04:52:04;94486.06;;;2.56;100.00
5500;BME280;2772;42.700;23.304;2023-03-16T04:54:31;94483.72;;;2.55;100.00
5500;BME280;2772;42.700;23.304;2023-03-16T04:56:59;94500.56;;;2.54;100.00
5500;BME280;2772;42.700;23.304;2023-03-16T04:59:25;94484.78;;;2.54;100.00
5500;BME280;2772;42.700;23.304;2023-03-16T05:01:54;94500.59;;;2.44;100.00
5500;BME280;2772;42.700;23.304;2023-03-16T05:04:21;94499.56;;;2.40;100.00
5500;BME280;2772;42.700;23.304;2023-03-16T05:06:48;94501.88;;;2.51;100.00
5500;BME280;2772;42.700;23.304;2023-03-16T05:09:15;94511.59;;;2.56;100.00
5500;BME280;2772;42.700;23.304;2023-03-16T05:11:42;94517.84;;;2.65;100.00
5500;BME280;2772;42.700;23.304;2023-03-16T05:14:09;94513.09;;;2.67;100.00
5500;BME280;2772;42.700;23.304;2023-03-16T05:16:35;94509.66;;;2.71;100.00
5500;BME280;2772;42.700;23.304;2023-03-16T05:19:04;94516.50;;;2.67;100.00
5500;BME280;2772;42.700;23.304;2023-03-16T05:21:31;94527.31;;;2.61;100.00
5500;BME280;2772;42.700;23.304;2023-03-16T05:23:59;94524.09;;;2.74;100.00
5500;BME280;2772;42.700;23.304;2023-03-16T05:26:26;94532.03;;;2.64;100.00
5500;BME280;2772;42.700;23.304;2023-03-16T05:28:53;94542.81;;;2.62;100.00
5500;BME280;2772;42.700;23.304;2023-03-16T05:31:20;94545.19;;;2.64;100.00
5500;BME280;2772;42.700;23.304;2023-03-16T05:33:47;94549.38;;;2.60;100.00
5500;BME280;2772;42.700;23.304;2023-03-16T05:36:15;94553.84;;;2.59;100.00
5500;BME280;2772;42.700;23.304;2023-03-16T05:38:42;94549.13;;;2.61;100.00
5500;BME280;2772;42.700;23.304;2023-03-16T05:41:10;94547.22;;;2.72;100.00
5500;BME280;2772;42.700;23.304;2023-03-16T05:43:36;94544.38;;;2.68;100.00
5500;BME280;2772;42.700;23.304;2023-03-16T05:46:03;94556.97;;;2.71;100.00
5500;BME280;2772;42.700;23.304;2023-03-16T05:48:30;94558.06;;;2.65;100.00
5500;BME280;2772;42.700;23.304;2023-03-16T05:50:57;94562.69;;;2.78;100.00
5500;BME280;2772;42.700;23.304;2023-03-16T05:53:25;94563.50;;;2.79;100.00
5500;BME280;2772;42.700;23.304;2023-03-16T05:55:53;94553.28;;;2.72;100.00
5500;BME280;2772;42.700;23.304;2023-03-16T05:58:20;94570.94;;;2.67;100.00
5500;BME280;2772;42.700;23.304;2023-03-16T06:00:46;94575.84;;;2.78;100.00
5500;BME280;2772;42.700;23.304;2023-03-16T06:03:14;94567.53;;;2.61;100.00
5500;BME280;2772;42.700;23.304;2023-03-16T06:05:41;94571.69;;;2.67;100.00
5500;BME280;2772;42.700;23.304;2023-03-16T06:08:08;94571.69;;;2.67;100.00
5500;BME280;2772;42.700;23.304;2023-03-16T06:10:37;94571.66;;;2.77;100.00
5500;BME280;2772;42.700;23.304;2023-03-16T06:13:03;94571.03;;;2.90;100.00
5500;BME280;2772;42.700;23.304;2023-03-16T06:15:30;94576.63;;;2.84;100.00
5500;BME280;2772;42.700;23.304;2023-03-16T06:17:57;94578.34;;;2.98;100.00
5500;BME280;2772;42.700;23.304;2023-03-16T06:20:24;94590.25;;;2.91;100.00
5500;BME280;2772;42.700;23.304;2023-03-16T06:22:51;94588.44;;;2.81;100.00
5500;BME280;2772;42.700;23.304;2023-03-16T06:25:18;94589.41;;;3.00;100.00
5500;BME280;2772;42.700;23.304;2023-03-16T06:27:46;94599.66;;;3.02;100.00
5500;BME280;2772;42.700;23.304;2023-03-16T06:30:14;94594.38;;;3.02;100.00
5500;BME280;2772;42.700;23.304;2023-03-16T06:32:41;94609.41;;;2.96;100.00
5500;BME280;2772;42.700;23.304;2023-03-16T06:35:10;94610.16;;;3.02;100.00
5500;BME280;2772;42.700;23.304;2023-03-16T06:37:37;94615.41;;;3.07;100.00
5500;BME280;2772;42.700;23.304;2023-03-16T06:40:05;94626.94;;;3.16;100.00
5500;BME280;2772;42.700;23.304;2023-03-16T06:42:31;94619.00;;;3.21;100.00
5500;BME280;2772;42.700;23.304;2023-03-16T06:45:00;94631.44;;;3.10;100.00
5500;BME280;2772;42.700;23.304;2023-03-16T06:47:26;94638.81;;;3.03;100.00
5500;BME280;2772;42.700;23.304;2023-03-16T06:49:53;94635.94;;;3.00;100.00
5500;BME280;2772;42.700;23.304;2023-03-16T06:52:20;94633.59;;;2.98;100.00
5500;BME280;2772;42.700;23.304;2023-03-16T06:54:47;94640.94;;;3.01;100.00
5500;BME280;2772;42.700;23.304;2023-03-16T06:57:14;94649.63;;;3.02;100.00
5500;BME280;2772;42.700;23.304;2023-03-16T06:59:41;94654.59;;;3.08;100.00
5500;BME280;2772;42.700;23.304;2023-03-16T07:02:10;94660.31;;;3.15;100.00
5500;BME280;2772;42.700;23.304;2023-03-16T07:04:38;94660.13;;;3.07;100.00
5500;BME280;2772;42.700;23.304;2023-03-16T07:07:06;94648.53;;;3.03;100.00
5500;BME280;2772;42.700;23.304;2023-03-16T07:09:33;94655.38;;;3.09;100.00
5500;BME280;2772;42.700;23.304;2023-03-16T07:11:59;94660.31;;;3.20;100.00
5500;BME280;2772;42.700;23.304;2023-03-16T07:14:26;94666.09;;;3.17;100.00
5500;BME280;2772;42.700;23.304;2023-03-16T07:16:53;94664.81;;;3.15;100.00
5500;BME280;2772;42.700;23.304;2023-03-16T07:19:21;94663.28;;;3.09;100.00
5500;BME280;2772;42.700;23.304;2023-03-16T07:21:48;94661.66;;;3.18;100.00
5500;BME280;2772;42.700;23.304;2023-03-16T07:24:16;94669.50;;;3.23;100.00
5500;BME280;2772;42.700;23.304;2023-03-16T07:26:42;94663.75;;;3.16;100.00
5500;BME280;2772;42.700;23.304;2023-03-16T07:29:10;94664.72;;;3.30;100.00
5500;BME280;2772;42.700;23.304;2023-03-16T07:31:38;94671.59;;;3.26;100.00
5500;BME280;2772;42.700;23.304;2023-03-16T07:34:05;94667.63;;;3.28;100.00
5500;BME280;2772;42.700;23.304;2023-03-16T07:36:33;94682.34;;;3.29;100.00
5500;BME280;2772;42.700;23.304;2023-03-16T07:39:00;94682.31;;;3.35;100.00
5500;BME280;2772;42.700;23.304;2023-03-16T07:41:26;94669.88;;;3.45;100.00
5500;BME280;2772;42.700;23.304;2023-03-16T07:43:53;94685.13;;;3.53;100.00
5500;BME280;2772;42.700;23.304;2023-03-16T07:46:20;94692.25;;;3.53;100.00
5500;BME280;2772;42.700;23.304;2023-03-16T07:48:46;94699.88;;;3.49;100.00
5500;BME280;2772;42.700;23.304;2023-03-16T07:51:13;94697.22;;;3.54;100.00
5500;BME280;2772;42.700;23.304;2023-03-16T07:53:41;94701.16;;;3.57;100.00
5500;BME280;2772;42.700;23.304;2023-03-16T07:56:08;94706.28;;;3.77;100.00
5500;BME280;2772;42.700;23.304;2023-03-16T07:58:37;94704.19;;;3.79;100.00
5500;BME280;2772;42.700;23.304;2023-03-16T08:01:04;94704.78;;;3.66;100.00
5500;BME280;2772;42.700;23.304;2023-03-16T08:03:30;94707.00;;;3.87;100.00
5500;BME280;2772;42.700;23.304;2023-03-16T08:05:57;94712.81;;;3.84;100.00
5500;BME280;2772;42.700;23.304;2023-03-16T08:08:24;94711.25;;;3.83;100.00
5500;BME280;2772;42.700;23.304;2023-03-16T08:10:52;94702.63;;;3.78;100.00
5500;BME280;2772;42.700;23.304;2023-03-16T08:13:19;94714.09;;;3.92;100.00
5500;BME280;2772;42.700;23.304;2023-03-16T08:15:47;94711.19;;;3.93;100.00
5500;BME280;2772;42.700;23.304;2023-03-16T08:18:14;94715.66;;;3.93;100.00
5500;BME280;2772;42.700;23.304;2023-03-16T08:20:41;94714.88;;;3.92;100.00
5500;BME280;2772;42.700;23.304;2023-03-16T08:23:08;94727.56;;;3.90;100.00
5500;BME280;2772;42.700;23.304;2023-03-16T08:25:36;94724.84;;;3.95;100.00
5500;BME280;2772;42.700;23.304;2023-03-16T08:28:04;94735.34;;;4.05;100.00
5500;BME280;2772;42.700;23.304;2023-03-16T08:30:33;94741.72;;;3.99;100.00
5500;BME280;2772;42.700;23.304;2023-03-16T08:33:00;94736.41;;;4.04;100.00
5500;BME280;2772;42.700;23.304;2023-03-16T08:35:28;94742.97;;;4.07;100.00
5500;BME280;2772;42.700;23.304;2023-03-16T08:37:55;94744.25;;;4.09;100.00
5500;BME280;2772;42.700;23.304;2023-03-16T08:40:21;94748.94;;;4.17;100.00
5500;BME280;2772;42.700;23.304;2023-03-16T08:42:49;94742.81;;;4.27;100.00
5500;BME280;2772;42.700;23.304;2023-03-16T08:45:18;94756.41;;;4.39;100.00
5500;BME280;2772;42.700;23.304;2023-03-16T08:47:44;94753.66;;;4.54;100.00
5500;BME280;2772;42.700;23.304;2023-03-16T08:50:12;94755.19;;;4.60;100.00
5500;BME280;2772;42.700;23.304;2023-03-16T08:52:39;94757.31;;;4.58;100.00
5500;BME280;2772;42.700;23.304;2023-03-16T08:55:07;94761.47;;;4.64;100.00
5500;BME280;2772;42.700;23.304;2023-03-16T08:57:36;94774.34;;;4.70;100.00
5500;BME280;2772;42.700;23.304;2023-03-16T09:00:04;94755.56;;;4.77;100.00
5500;BME280;2772;42.700;23.304;2023-03-16T09:02:39;94763.88;;;4.89;100.00
5500;BME280;2772;42.700;23.304;2023-03-16T09:05:07;94755.69;;;4.90;100.00
5500;BME280;2772;42.700;23.304;2023-03-16T09:07:34;94763.59;;;4.90;100.00
5500;BME280;2772;42.700;23.304;2023-03-16T09:10:01;94779.94;;;4.93;100.00
5500;BME280;2772;42.700;23.304;2023-03-16T09:12:33;94774.84;;;5.01;100.00
5500;BME280;2772;42.700;23.304;2023-03-16T09:15:01;94765.03;;;5.07;100.00
5500;BME280;2772;42.700;23.304;2023-03-16T09:17:27;94767.09;;;5.10;100.00
5500;BME280;2772;42.700;23.304;2023-03-16T09:19:55;94783.50;;;5.07;100.00
5500;BME280;2772;42.700;23.304;2023-03-16T09:22:23;94780.91;;;5.02;100.00
5500;BME280;2772;42.700;23.304;2023-03-16T09:24:49;94784.22;;;5.12;100.00
5500;BME280;2772;42.700;23.304;2023-03-16T09:27:17;94780.56;;;5.08;100.00
5500;BME280;2772;42.700;23.304;2023-03-16T09:29:45;94779.28;;;5.06;100.00
5500;BME280;2772;42.700;23.304;2023-03-16T09:32:12;94785.53;;;5.15;100.00
5500;BME280;2772;42.700;23.304;2023-03-16T09:34:39;94780.34;;;5.05;100.00
5500;BME280;2772;42.700;23.304;2023-03-16T09:37:08;94777.13;;;5.08;100.00
5500;BME280;2772;42.700;23.304;2023-03-16T09:39:35;94800.16;;;5.02;100.00
5500;BME280;2772;42.700;23.304;2023-03-16T09:42:11;94777.00;;;5.46;100.00
5500;BME280;2772;42.700;23.304;2023-03-16T09:44:45;94783.50;;;5.07;100.00
5500;BME280;2772;42.700;23.304;2023-03-16T09:47:22;94800.13;;;5.07;100.00
5500;BME280;2772;42.700;23.304;2023-03-16T09:49:51;94791.91;;;5.09;100.00
5500;BME280;2772;42.700;23.304;2023-03-16T09:52:27;94794.53;;;4.85;100.00
5500;BME280;2772;42.700;23.304;2023-03-16T09:55:00;94805.31;;;4.88;100.00
5500;BME280;2772;42.700;23.304;2023-03-16T09:57:31;94801.38;;;4.86;100.00
5500;BME280;2772;42.700;23.304;2023-03-16T10:00:09;94801.63;;;4.84;100.00
5500;BME280;2772;42.700;23.304;2023-03-16T10:02:49;94804.25;;;4.89;100.00
5500;BME280;2772;42.700;23.304;2023-03-16T10:05:20;94802.13;;;4.92;100.00
5500;BME280;2772;42.700;23.304;2023-03-16T10:07:55;94801.78;;;4.98;100.00
5500;BME280;2772;42.700;23.304;2023-03-16T10:10:37;94785.00;;;5.13;100.00
5500;BME280;2772;42.700;23.304;2023-03-16T10:13:15;94796.63;;;5.12;100.00
5500;BME280;2772;42.700;23.304;2023-03-16T10:15:44;94803.53;;;5.08;100.00
5500;BME280;2772;42.700;23.304;2023-03-16T10:18:15;94808.75;;;5.13;100.00
5500;BME280;2772;42.700;23.304;2023-03-16T10:20:44;94796.88;;;5.15;100.00
5500;BME280;2772;42.700;23.304;2023-03-16T10:23:16;94800.88;;;5.08;100.00
5500;BME280;2772;42.700;23.304;2023-03-16T10:25:46;94792.38;;;5.16;100.00
5500;BME280;2772;42.700;23.304;2023-03-16T10:28:15;94800.78;;;5.18;100.00
5500;BME280;2772;42.700;23.304;2023-03-16T10:30:43;94809.78;;;5.17;100.00
5500;BME280;2772;42.700;23.304;2023-03-16T10:33:17;94802.88;;;5.21;100.00
5500;BME280;2772;42.700;23.304;2023-03-16T10:35:47;94801.53;;;5.23;100.00
5500;BME280;2772;42.700;23.304;2023-03-16T10:38:36;94803.38;;;5.23;100.00
5500;BME280;2772;42.700;23.304;2023-03-16T10:41:22;94785.75;;;5.42;100.00
5500;BME280;2772;42.700;23.304;2023-03-16T10:43:52;94793.78;;;5.55;100.00
5500;BME280;2772;42.700;23.304;2023-03-16T10:46:20;94787.41;;;5.56;100.00
5500;BME280;2772;42.700;23.304;2023-03-16T10:48:52;94792.69;;;5.56;100.00
5500;BME280;2772;42.700;23.304;2023-03-16T10:51:25;94800.28;;;5.63;100.00
5500;BME280;2772;42.700;23.304;2023-03-16T10:53:57;94787.97;;;5.77;100.00
5500;BME280;2772;42.700;23.304;2023-03-16T10:56:32;94793.59;;;5.70;100.00
5500;BME280;2772;42.700;23.304;2023-03-16T10:59:00;94801.47;;;5.75;100.00
5500;BME280;2772;42.700;23.304;2023-03-16T11:01:28;94804.09;;;5.75;100.00
5500;BME280;2772;42.700;23.304;2023-03-16T11:03:58;94799.78;;;5.61;100.00
5500;BME280;2772;42.700;23.304;2023-03-16T11:06:27;94802.97;;;5.58;100.00
5500;BME280;2772;42.700;23.304;2023-03-16T11:09:03;94799.38;;;5.72;100.00
5500;BME280;2772;42.700;23.304;2023-03-16T11:11:31;94808.66;;;5.70;100.00
5500;BME280;2772;42.700;23.304;2023-03-16T11:14:01;94816.22;;;5.76;100.00
5500;BME280;2772;42.700;23.304;2023-03-16T11:16:31;94804.31;;;5.79;100.00
5500;BME280;2772;42.700;23.304;2023-03-16T11:19:02;94810.22;;;5.71;100.00
5500;BME280;2772;42.700;23.304;2023-03-16T11:21:41;94804.81;;;5.81;100.00
5500;BME280;2772;42.700;23.304;2023-03-16T11:24:18;94803.34;;;5.93;100.00
5500;BME280;2772;42.700;23.304;2023-03-16T11:26:52;94805.75;;;6.13;100.00
5500;BME280;2772;42.700;23.304;2023-03-16T11:29:23;94803.09;;;6.13;100.00
5500;BME280;2772;42.700;23.304;2023-03-16T11:31:56;94813.72;;;5.90;100.00
5500;BME280;2772;42.700;23.304;2023-03-16T11:34:28;94813.94;;;5.93;100.00
5500;BME280;2772;42.700;23.304;2023-03-16T11:36:57;94808.94;;;5.92;100.00
5500;BME280;2772;42.700;23.304;2023-03-16T11:39:36;94808.06;;;5.96;100.00
5500;BME280;2772;42.700;23.304;2023-03-16T11:42:28;94813.44;;;5.91;100.00
5500;BME280;2772;42.700;23.304;2023-03-16T11:45:02;94807.94;;;5.88;100.00
5500;BME280;2772;42.700;23.304;2023-03-16T11:47:59;94811.72;;;5.82;100.00
5500;BME280;2772;42.700;23.304;2023-03-16T11:50:35;94811.22;;;5.75;100.00
5500;BME280;2772;42.700;23.304;2023-03-16T11:53:12;94811.84;;;5.67;100.00
5500;BME280;2772;42.700;23.304;2023-03-16T11:55:48;94821.47;;;5.58;100.00
5500;BME280;2772;42.700;23.304;2023-03-16T11:58:28;94810.84;;;5.63;100.00
5500;BME280;2772;42.700;23.304;2023-03-16T12:01:07;94811.53;;;5.50;100.00
5500;BME280;2772;42.700;23.304;2023-03-16T12:03:49;94819.84;;;5.38;100.00
5500;BME280;2772;42.700;23.304;2023-03-16T12:06:27;94820.53;;;5.49;100.00
5500;BME280;2772;42.700;23.304;2023-03-16T12:09:17;94826.41;;;5.41;100.00
5500;BME280;2772;42.700;23.304;2023-03-16T12:11:53;94817.53;;;5.79;100.00
5500;BME280;2772;42.700;23.304;2023-03-16T12:14:26;94813.81;;;5.80;100.00
5500;BME280;2772;42.700;23.304;2023-03-16T12:16:57;94827.16;;;5.70;100.00
5500;BME280;2772;42.700;23.304;2023-03-16T12:19:33;94833.72;;;5.72;100.00
5500;BME280;2772;42.700;23.304;2023-03-16T12:22:07;94818.50;;;5.88;100.00
5500;BME280;2772;42.700;23.304;2023-03-16T12:24:42;94830.97;;;5.82;100.00
5500;BME280;2772;42.700;23.304;2023-03-16T12:27:14;94833.28;;;5.89;100.00
5500;BME280;2772;42.700;23.304;2023-03-16T12:29:52;94841.28;;;5.84;100.00
5500;BME280;2772;42.700;23.304;2023-03-16T12:32:32;94839.44;;;5.79;100.00
5500;BME280;2772;42.700;23.304;2023-03-16T12:35:07;94847.66;;;5.78;100.00
5500;BME280;2772;42.700;23.304;2023-03-16T12:37:44;94842.72;;;5.95;100.00
5500;BME280;2772;42.700;23.304;2023-03-16T12:40:24;94837.31;;;5.58;100.00
5500;BME280;2772;42.700;23.304;2023-03-16T12:43:08;94840.38;;;5.70;100.00
5500;BME280;2772;42.700;23.304;2023-03-16T12:45:42;94842.34;;;5.78;100.00
5500;BME280;2772;42.700;23.304;2023-03-16T12:48:17;94851.09;;;5.78;100.00
5500;BME280;2772;42.700;23.304;2023-03-16T12:50:50;94852.50;;;5.71;100.00
5500;BME280;2772;42.700;23.304;2023-03-16T12:53:27;94859.53;;;5.57;100.00
5500;BME280;2772;42.700;23.304;2023-03-16T12:55:55;94859.69;;;5.42;100.00
5500;BME280;2772;42.700;23.304;2023-03-16T12:58:24;94868.59;;;5.22;100.00
5500;BME280;2772;42.700;23.304;2023-03-16T13:00:57;94856.03;;;5.09;100.00
5500;BME280;2772;42.700;23.304;2023-03-16T13:03:25;94858.56;;;4.90;100.00
5500;BME280;2772;42.700;23.304;2023-03-16T13:05:54;94862.78;;;4.92;100.00
5500;BME280;2772;42.700;23.304;2023-03-16T13:08:23;94857.03;;;4.84;100.00
5500;BME280;2772;42.700;23.304;2023-03-16T13:11:03;94858.22;;;4.68;100.00
5500;BME280;2772;42.700;23.304;2023-03-16T13:13:32;94854.38;;;4.89;100.00
5500;BME280;2772;42.700;23.304;2023-03-16T13:16:04;94858.25;;;4.97;100.00
5500;BME280;2772;42.700;23.304;2023-03-16T13:18:36;94865.06;;;5.03;100.00
5500;BME280;2772;42.700;23.304;2023-03-16T13:21:15;94855.63;;;5.26;100.00
5500;BME280;2772;42.700;23.304;2023-03-16T13:23:54;94852.94;;;5.31;100.00
5500;BME280;2772;42.700;23.304;2023-03-16T13:26:30;94875.66;;;5.27;100.00
5500;BME280;2772;42.700;23.304;2023-03-16T13:29:06;94854.81;;;5.25;100.00
5500;BME280;2772;42.700;23.304;2023-03-16T13:31:43;94856.97;;;5.47;100.00
5500;BME280;2772;42.700;23.304;2023-03-16T13:34:13;94859.69;;;5.42;100.00
5500;BME280;2772;42.700;23.304;2023-03-16T13:36:43;94866.53;;;5.43;100.00
5500;BME280;2772;42.700;23.304;2023-03-16T13:39:14;94864.06;;;5.28;100.00
5500;BME280;2772;42.700;23.304;2023-03-16T13:41:41;94874.94;;;5.21;100.00
5500;BME280;2772;42.700;23.304;2023-03-16T13:44:14;94874.41;;;5.19;100.00
5500;BME280;2772;42.700;23.304;2023-03-16T13:46:41;94881.34;;;5.15;100.00
5500;BME280;2772;42.700;23.304;2023-03-16T13:49:10;94888.44;;;5.15;100.00
5500;BME280;2772;42.700;23.304;2023-03-16T13:51:37;94890.53;;;5.18;100.00
5500;BME280;2772;42.700;23.304;2023-03-16T13:54:04;94886.41;;;5.35;100.00
5500;BME280;2772;42.700;23.304;2023-03-16T13:56:37;94878.63;;;5.20;100.00
5500;BME280;2772;42.700;23.304;2023-03-16T13:59:04;94887.03;;;5.27;100.00
5500;BME280;2772;42.700;23.304;2023-03-16T14:01:35;94896.25;;;5.25;100.00
5500;BME280;2772;42.700;23.304;2023-03-16T14:04:05;94894.75;;;5.19;100.00
5500;BME280;2772;42.700;23.304;2023-03-16T14:06:38;94896.81;;;5.22;100.00
5500;BME280;2772;42.700;23.304;2023-03-16T14:09:14;94884.88;;;5.01;100.00
5500;BME280;2772;42.700;23.304;2023-03-16T14:11:42;94901.13;;;5.13;100.00
5500;BME280;2772;42.700;23.304;2023-03-16T14:14:13;94911.31;;;4.90;100.00
5500;BME280;2772;42.700;23.304;2023-03-16T14:16:42;94893.97;;;4.84;100.00
5500;BME280;2772;42.700;23.304;2023-03-16T14:19:16;94905.03;;;4.86;100.00
5500;BME280;2772;42.700;23.304;2023-03-16T14:21:44;94908.09;;;4.65;100.00
5500;BME280;2772;42.700;23.304;2023-03-16T14:24:26;94905.84;;;4.43;100.00